createdAt,value
2023-02-07T00:00:42.311Z,95.37
2023-02-07T00:03:50.437Z,95.48
2023-02-07T00:06:58.395Z,95.58
2023-02-07T00:10:06.603Z,96.00
2023-02-07T00:13:14.704Z,96.31
2023-02-07T00:16:23.068Z,96.37
2023-02-07T00:19:31.215Z,96.27
2023-02-07T00:22:39.440Z,95.96
2023-02-07T00:25:47.969Z,95.54
2023-02-07T00:28:55.676Z,95.23
2023-02-07T00:32:04.340Z,95.37
2023-02-07T00:35:12.573Z,95.37
2023-02-07T00:38:20.240Z,95.27
2023-02-07T00:41:28.594Z,95.10
2023-02-07T00:44:36.482Z,95.00
2023-02-07T00:47:44.562Z,95.15
2023-02-07T00:50:53.105Z,95.25
2023-02-07T00:54:01.477Z,95.50
2023-02-07T00:57:09.473Z,95.72
2023-02-07T01:00:17.652Z,95.86
2023-02-07T01:03:25.718Z,96.18
2023-02-07T01:06:33.856Z,96.39
2023-02-07T01:09:42.369Z,96.53
2023-02-07T01:12:50.445Z,96.75
2023-02-07T01:15:58.562Z,96.85
2023-02-07T01:19:06.862Z,96.95
2023-02-07T01:22:14.960Z,96.89
2023-02-07T01:25:22.949Z,97.11
2023-02-07T01:28:30.894Z,97.63
2023-02-07T01:31:39.840Z,97.84
2023-02-07T01:34:47.764Z,98.16
2023-02-07T01:37:55.921Z,98.30
2023-02-07T01:41:03.932Z,98.52
2023-02-07T01:44:11.708Z,98.41
2023-02-07T01:47:19.950Z,98.52
2023-02-07T01:50:27.616Z,98.62
2023-02-07T01:53:36.104Z,98.41
2023-02-07T01:55:46.430Z,98.77
2023-02-07T01:58:46.513Z,98.77
2023-02-07T02:01:54.886Z,98.88
2023-02-07T02:05:03.179Z,98.98
2023-02-07T02:08:11.376Z,98.88
2023-02-07T02:11:19.446Z,99.08
2023-02-07T02:14:27.479Z,99.19
2023-02-07T02:17:35.756Z,99.13
2023-02-07T02:20:44.040Z,98.92
2023-02-07T02:23:52.305Z,99.13
2023-02-07T02:27:00.162Z,99.18
2023-02-07T02:30:08.531Z,99.07
2023-02-07T02:33:16.669Z,99.07
2023-02-07T02:36:24.599Z,99.49
2023-02-07T02:39:33.292Z,99.70
2023-02-07T02:42:41.820Z,99.81
2023-02-07T02:45:49.771Z,99.81
2023-02-07T02:48:58.562Z,99.85
2023-02-07T02:52:06.879Z,99.81
2023-02-07T02:55:14.924Z,99.91
2023-02-07T02:58:23.332Z,99.91
2023-02-07T03:01:31.095Z,99.87
2023-02-07T03:04:39.343Z,99.76
2023-02-07T03:07:47.293Z,99.76
2023-02-07T03:10:55.969Z,99.55
2023-02-07T03:14:03.938Z,99.76
2023-02-07T03:17:12.433Z,99.76
2023-02-07T03:20:21.018Z,99.76
2023-02-07T03:23:28.796Z,99.87
2023-02-07T03:26:37.398Z,99.87
2023-02-07T03:29:45.520Z,99.99
2023-02-07T03:32:53.757Z,99.99
2023-02-07T03:36:02.229Z,99.99
2023-02-07T03:39:10.278Z,99.99
2023-02-07T03:42:18.322Z,99.99
2023-02-07T03:45:26.678Z,99.99
2023-02-07T03:48:34.718Z,99.99
2023-02-07T03:51:42.915Z,99.99
2023-02-07T03:54:50.756Z,99.99
2023-02-07T03:57:59.218Z,99.99
2023-02-07T04:01:06.856Z,99.99
2023-02-07T04:04:15.705Z,99.99
2023-02-07T04:07:23.780Z,99.99
2023-02-07T04:10:31.948Z,99.99
2023-02-07T04:13:39.962Z,99.99
2023-02-07T04:16:48.188Z,99.99
2023-02-07T04:19:56.670Z,99.99
2023-02-07T04:23:05.090Z,99.99
2023-02-07T04:26:13.349Z,99.99
2023-02-07T04:29:21.840Z,99.99
2023-02-07T04:32:29.948Z,99.99
2023-02-07T04:35:38.457Z,99.99
2023-02-07T04:38:47.004Z,99.99
2023-02-07T04:41:54.760Z,99.99
2023-02-07T04:45:03.030Z,99.99
2023-02-07T04:48:11.545Z,99.99
2023-02-07T04:51:19.231Z,99.99
2023-02-07T04:54:27.490Z,99.99
2023-02-07T04:57:35.721Z,99.99
2023-02-07T05:00:44.050Z,99.99
2023-02-07T05:03:52.092Z,99.99
2023-02-07T05:07:00.212Z,99.99
2023-02-07T05:10:08.290Z,99.99
2023-02-07T05:13:17.038Z,99.99
2023-02-07T05:16:25.244Z,99.99
2023-02-07T05:19:33.364Z,99.99
2023-02-07T05:22:41.444Z,99.99
2023-02-07T05:25:49.927Z,99.99
2023-02-07T05:28:58.121Z,99.99
2023-02-07T05:32:06.985Z,99.99
2023-02-07T05:35:15.427Z,99.99
2023-02-07T05:38:23.588Z,99.99
2023-02-07T05:41:31.805Z,99.99
2023-02-07T05:44:40.240Z,99.99
2023-02-07T05:47:47.988Z,99.99
2023-02-07T05:50:56.100Z,99.99
2023-02-07T05:54:04.625Z,99.99
2023-02-07T05:57:12.379Z,99.99
2023-02-07T06:00:21.041Z,99.99
2023-02-07T06:03:29.802Z,99.99
2023-02-07T06:06:37.531Z,99.99
2023-02-07T06:09:45.880Z,99.99
2023-02-07T06:12:53.877Z,99.99
2023-02-07T06:16:02.248Z,99.99
2023-02-07T06:19:10.243Z,99.99
2023-02-07T06:22:18.355Z,99.99
2023-02-07T06:25:26.506Z,99.99
2023-02-07T06:28:34.946Z,99.99
2023-02-07T06:31:43.166Z,99.99
2023-02-07T06:34:51.160Z,99.99
2023-02-07T06:37:59.526Z,99.99
2023-02-07T06:41:07.564Z,99.99
2023-02-07T06:44:15.631Z,99.99
2023-02-07T06:47:23.545Z,99.99
2023-02-07T06:50:31.956Z,99.99
2023-02-07T06:53:40.071Z,99.99
2023-02-07T06:56:48.172Z,99.99
2023-02-07T06:59:56.532Z,99.99
2023-02-07T07:03:04.707Z,99.99
2023-02-07T07:06:12.461Z,99.99
2023-02-07T07:09:20.983Z,99.99
2023-02-07T07:12:29.087Z,99.99
2023-02-07T07:15:37.159Z,99.99
2023-02-07T07:18:45.953Z,99.99
2023-02-07T07:21:53.695Z,99.99
2023-02-07T07:25:01.698Z,99.99
2023-02-07T07:28:10.221Z,99.99
2023-02-07T07:31:18.051Z,99.99
2023-02-07T07:34:26.363Z,99.99
2023-02-07T07:37:34.812Z,99.99
2023-02-07T07:40:42.796Z,99.99
2023-02-07T07:43:50.844Z,99.99
2023-02-07T07:46:59.135Z,99.99
2023-02-07T07:50:07.278Z,99.99
2023-02-07T07:53:15.471Z,99.99
2023-02-07T07:56:23.535Z,99.99
2023-02-07T07:59:31.533Z,99.99
2023-02-07T08:02:39.614Z,99.99
2023-02-07T08:05:47.582Z,99.99
2023-02-07T08:08:56.191Z,99.99
2023-02-07T08:12:04.169Z,99.99
2023-02-07T08:15:12.130Z,99.99
2023-02-07T08:18:20.572Z,99.99
2023-02-07T08:21:28.827Z,99.99
2023-02-07T08:24:37.268Z,99.99
2023-02-07T08:27:45.816Z,99.99
2023-02-07T08:30:54.115Z,99.99
2023-02-07T08:34:02.249Z,99.93
2023-02-07T08:37:10.397Z,99.72
2023-02-07T08:40:18.082Z,99.82
2023-02-07T08:43:26.486Z,99.78
2023-02-07T08:46:34.470Z,99.46
2023-02-07T08:49:42.409Z,99.04
2023-02-07T08:52:50.879Z,98.68
2023-02-07T08:55:58.901Z,98.47
2023-02-07T08:59:07.062Z,98.26
2023-02-07T09:02:15.472Z,98.00
2023-02-07T09:05:23.128Z,97.80
2023-02-07T09:08:31.563Z,97.48
2023-02-07T09:11:40.173Z,97.17
2023-02-07T09:14:47.782Z,96.91
2023-02-07T09:17:56.314Z,96.91
2023-02-07T09:21:04.630Z,96.59
2023-02-07T09:24:12.312Z,96.45
2023-02-07T09:27:20.665Z,96.13
2023-02-07T09:30:28.690Z,96.24
2023-02-07T09:33:36.717Z,96.03
2023-02-07T09:36:45.050Z,95.29
2023-02-07T09:39:52.863Z,94.98
2023-02-07T09:43:01.121Z,94.73
2023-02-07T09:46:10.494Z,94.10
2023-02-07T09:49:18.729Z,93.88
2023-02-07T09:52:26.946Z,93.74
2023-02-07T09:55:35.287Z,93.53
2023-02-07T09:58:43.671Z,93.74
2023-02-07T10:01:51.547Z,93.74
2023-02-07T10:04:59.534Z,94.16
2023-02-07T10:08:07.715Z,94.26
2023-02-07T10:11:15.745Z,94.22
2023-02-07T10:14:23.614Z,93.91
2023-02-07T10:17:32.337Z,93.38
2023-02-07T10:20:41.147Z,92.96
2023-02-07T10:23:49.477Z,92.92
2023-02-07T10:26:58.105Z,92.82
2023-02-07T10:30:05.814Z,92.50
2023-02-07T10:33:14.211Z,91.87
2023-02-07T10:36:22.592Z,90.83
2023-02-07T10:39:30.265Z,88.94
2023-02-07T10:42:38.675Z,88.84
2023-02-07T10:45:51.912Z,87.05
2023-02-07T10:48:50.886Z,88.06
2023-02-07T10:51:59.288Z,87.85
2023-02-07T10:55:07.399Z,87.96
2023-02-07T10:58:22.852Z,88.27
2023-02-07T11:01:20.414Z,88.75
2023-02-07T11:04:28.647Z,88.29
2023-02-07T11:07:46.294Z,87.25
2023-02-07T11:10:42.412Z,85.64
2023-02-07T11:13:50.431Z,84.39
2023-02-07T11:16:58.378Z,84.80
2023-02-07T11:20:06.478Z,83.76
2023-02-07T11:23:14.829Z,82.82
2023-02-07T11:26:22.976Z,80.52
2023-02-07T11:29:31.013Z,80.38
2023-02-07T11:32:39.652Z,78.81
2023-02-07T11:35:47.691Z,77.97
2023-02-07T11:38:55.989Z,77.76
2023-02-07T11:42:04.394Z,78.25
2023-02-07T11:45:12.035Z,78.14
2023-02-07T11:48:20.049Z,77.51
2023-02-07T11:51:28.364Z,76.79
2023-02-07T11:54:36.406Z,78.00
2023-02-07T11:57:44.550Z,78.00
2023-02-07T12:00:52.522Z,78.07
2023-02-07T12:04:00.898Z,77.66
2023-02-07T12:07:09.003Z,78.91
2023-02-07T12:10:17.008Z,78.45
2023-02-07T12:13:25.690Z,80.13
2023-02-07T12:16:33.581Z,80.23
2023-02-07T12:19:41.766Z,78.97
2023-02-07T12:23:00.209Z,78.83
2023-02-07T12:25:55.755Z,80.30
2023-02-07T12:29:12.664Z,81.30
2023-02-07T12:32:09.100Z,78.83
2023-02-07T12:35:16.745Z,80.36
2023-02-07T12:38:25.293Z,80.74
2023-02-07T12:41:33.295Z,80.26
2023-02-07T12:44:41.418Z,81.37
2023-02-07T12:47:49.736Z,77.51
2023-02-07T12:50:57.358Z,78.77
2023-02-07T12:54:06.017Z,78.66
2023-02-07T12:57:14.458Z,78.34
2023-02-07T13:00:22.287Z,78.45
2023-02-07T13:03:30.755Z,78.56
2023-02-07T13:06:39.208Z,80.85
2023-02-07T13:09:46.938Z,80.33
2023-02-07T13:12:55.500Z,79.80
2023-02-07T13:16:03.710Z,81.85
2023-02-07T13:19:11.285Z,81.33
2023-02-07T13:22:19.991Z,81.33
2023-02-07T13:25:27.843Z,79.73
2023-02-07T13:28:35.880Z,80.77
2023-02-07T13:31:43.930Z,80.57
2023-02-07T13:34:51.678Z,79.66
2023-02-07T13:37:59.656Z,80.08
2023-02-07T13:41:07.572Z,79.87
2023-02-07T13:44:16.021Z,81.02
2023-02-07T13:47:24.287Z,79.56
2023-02-07T13:50:32.380Z,79.46
2023-02-07T13:53:40.609Z,79.14
2023-02-07T13:56:48.459Z,78.00
2023-02-07T13:59:56.671Z,77.27
2023-02-07T14:03:04.936Z,78.24
2023-02-07T14:06:12.570Z,78.14
2023-02-07T14:09:20.842Z,78.14
2023-02-07T14:12:29.133Z,79.60
2023-02-07T14:15:37.364Z,78.91
2023-02-07T14:18:46.191Z,79.98
2023-02-07T14:21:54.263Z,79.77
2023-02-07T14:25:02.152Z,79.67
2023-02-07T14:28:10.305Z,80.71
2023-02-07T14:31:18.514Z,81.23
2023-02-07T14:34:27.231Z,82.17
2023-02-07T14:37:35.383Z,82.00
2023-02-07T14:40:43.257Z,81.06
2023-02-07T14:44:03.300Z,83.04
2023-02-07T14:46:56.690Z,83.78
2023-02-07T14:50:05.096Z,84.40
2023-02-07T14:53:13.183Z,85.13
2023-02-07T14:56:21.147Z,85.76
2023-02-07T14:59:29.760Z,86.53
2023-02-07T15:02:37.439Z,87.05
2023-02-07T15:05:45.947Z,87.57
2023-02-07T15:08:54.402Z,87.88
2023-02-07T15:12:10.589Z,88.30
2023-02-07T15:15:07.421Z,88.51
2023-02-07T15:18:15.882Z,88.97
2023-02-07T15:21:23.748Z,89.59
2023-02-07T15:24:39.773Z,89.91
2023-02-07T15:27:37.337Z,90.01
2023-02-07T15:30:45.619Z,90.37
2023-02-07T15:33:54.262Z,90.78
2023-02-07T15:37:02.199Z,91.10
2023-02-07T15:40:10.448Z,91.35
2023-02-07T15:43:18.457Z,91.66
2023-02-07T15:46:27.000Z,91.87
2023-02-07T15:49:35.368Z,92.23
2023-02-07T15:52:43.222Z,92.65
2023-02-07T15:55:51.815Z,93.11
2023-02-07T15:58:59.917Z,93.52
2023-02-07T16:02:07.954Z,93.52
2023-02-07T16:05:16.385Z,93.88
2023-02-07T16:08:24.312Z,93.99
2023-02-07T16:11:32.947Z,94.13
2023-02-07T16:14:41.246Z,94.34
2023-02-07T16:17:49.138Z,94.45
2023-02-07T16:20:57.548Z,94.81
2023-02-07T16:24:05.881Z,95.12
2023-02-07T16:27:13.507Z,95.33
2023-02-07T16:30:24.071Z,95.54
2023-02-07T16:33:32.048Z,95.58
2023-02-07T16:36:40.126Z,95.37
2023-02-07T16:39:48.742Z,95.48
2023-02-07T16:42:56.640Z,95.52
2023-02-07T16:46:04.578Z,95.42
2023-02-07T16:49:12.478Z,95.31
2023-02-07T16:52:20.873Z,94.89
2023-02-07T16:55:28.943Z,94.89
2023-02-07T16:58:37.060Z,94.51
2023-02-07T17:01:45.990Z,94.51
2023-02-07T17:04:54.441Z,94.83
2023-02-07T17:08:02.874Z,95.25
2023-02-07T17:11:11.184Z,95.46
2023-02-07T17:14:19.385Z,95.78
2023-02-07T17:17:27.644Z,96.09
2023-02-07T17:20:36.190Z,96.34
2023-02-07T17:23:44.012Z,96.45
2023-02-07T17:26:52.513Z,96.77
2023-02-07T17:30:01.054Z,96.97
2023-02-07T17:33:08.670Z,97.29
2023-02-07T17:36:17.055Z,97.44
2023-02-07T17:39:25.377Z,97.75
2023-02-07T17:42:34.329Z,97.86
2023-02-07T17:45:42.481Z,97.86
2023-02-07T17:48:50.827Z,98.00
2023-02-07T17:51:58.400Z,98.11
2023-02-07T17:55:06.569Z,98.22
2023-02-07T17:58:14.807Z,98.32
2023-02-07T18:01:22.945Z,98.53
2023-02-07T18:04:31.228Z,98.53
2023-02-07T18:07:39.439Z,98.53
2023-02-07T18:10:47.271Z,98.58
2023-02-07T18:13:55.873Z,98.79
2023-02-07T18:17:04.034Z,98.79
2023-02-07T18:20:12.228Z,98.68
2023-02-07T18:23:20.636Z,98.89
2023-02-07T18:26:29.046Z,98.89
2023-02-07T18:29:36.840Z,99.00
2023-02-07T18:32:44.933Z,99.10
2023-02-07T18:35:53.960Z,99.21
2023-02-07T18:39:01.991Z,99.21
2023-02-07T18:42:10.590Z,99.31
2023-02-07T18:45:18.970Z,99.31
2023-02-07T18:48:27.070Z,99.25
2023-02-07T18:51:34.834Z,99.46
2023-02-07T18:54:43.361Z,99.46
2023-02-07T18:57:51.162Z,99.36
2023-02-07T19:00:59.696Z,99.36
2023-02-07T19:04:08.156Z,99.15
2023-02-07T19:07:16.144Z,99.15
2023-02-07T19:10:24.747Z,99.04
2023-02-07T19:13:33.326Z,99.15
2023-02-07T19:16:41.068Z,99.15
2023-02-07T19:19:49.497Z,99.19
2023-02-07T19:22:58.107Z,99.30
2023-02-07T19:26:06.040Z,99.19
2023-02-07T19:29:14.259Z,99.40
2023-02-07T19:32:22.387Z,99.40
2023-02-07T19:35:30.234Z,99.40
2023-02-07T19:38:38.336Z,99.51
2023-02-07T19:41:46.631Z,99.72
2023-02-07T19:44:54.312Z,99.72
2023-02-07T19:48:02.364Z,99.82
2023-02-07T19:51:10.252Z,99.82
2023-02-07T19:54:20.817Z,99.82
2023-02-07T19:57:28.567Z,99.93
2023-02-07T20:00:37.774Z,99.82
2023-02-07T20:03:46.068Z,99.93
2023-02-07T20:06:55.481Z,99.93
2023-02-07T20:10:05.163Z,99.93
2023-02-07T20:13:13.174Z,99.93
2023-02-07T20:16:21.088Z,99.93
2023-02-07T20:19:30.960Z,99.99
2023-02-07T20:22:39.788Z,99.99
2023-02-07T20:25:47.930Z,99.99
2023-02-07T20:28:56.653Z,99.99
2023-02-07T20:32:04.607Z,99.99
2023-02-07T20:35:13.343Z,99.99
2023-02-07T20:38:21.845Z,99.99
2023-02-07T20:41:29.910Z,99.99
2023-02-07T20:44:38.256Z,99.99
2023-02-07T20:47:46.186Z,99.99
2023-02-07T20:50:53.981Z,99.99
2023-02-07T20:54:02.811Z,99.99
2023-02-07T20:57:11.211Z,99.99
2023-02-07T21:00:18.988Z,99.99
2023-02-07T21:03:26.905Z,99.99
2023-02-07T21:06:34.568Z,99.99
2023-02-07T21:09:43.321Z,99.99
2023-02-07T21:12:51.906Z,99.99
2023-02-07T21:16:03.398Z,99.99
2023-02-07T21:19:01.025Z,99.99
2023-02-07T21:22:09.566Z,99.99
2023-02-07T21:25:17.769Z,99.99
2023-02-07T21:28:26.246Z,99.99
2023-02-07T21:31:35.836Z,99.99
2023-02-07T21:34:44.777Z,99.99
2023-02-07T21:37:52.793Z,99.99
2023-02-07T21:41:01.016Z,99.99
2023-02-07T21:44:09.810Z,99.99
2023-02-07T21:47:17.909Z,99.99
2023-02-07T21:50:25.997Z,99.99
2023-02-07T21:53:34.453Z,99.99
2023-02-07T21:56:42.494Z,99.99
2023-02-07T21:59:50.517Z,99.99
2023-02-07T22:02:58.694Z,99.99
2023-02-07T22:06:06.716Z,99.99
2023-02-07T22:09:14.787Z,99.99
2023-02-07T22:12:23.319Z,99.99
2023-02-07T22:15:32.637Z,99.99
2023-02-07T22:18:31.725Z,99.99
2023-02-07T22:21:40.188Z,99.99
2023-02-07T22:24:47.962Z,99.99
2023-02-07T22:27:56.465Z,99.99
2023-02-07T22:31:05.014Z,99.99
2023-02-07T22:34:13.227Z,99.99
2023-02-07T22:37:20.926Z,99.99
2023-02-07T22:40:29.063Z,99.99
2023-02-07T22:43:36.935Z,99.99
2023-02-07T22:46:45.250Z,99.99
2023-02-07T22:49:53.331Z,99.99
2023-02-07T22:53:01.589Z,99.99
2023-02-07T22:56:09.760Z,99.99
2023-02-07T22:59:17.973Z,99.99
2023-02-07T23:02:26.317Z,99.99
2023-02-07T23:05:34.060Z,99.99
2023-02-07T23:08:42.431Z,99.99
2023-02-07T23:11:50.423Z,99.99
2023-02-07T23:14:58.384Z,99.99
2023-02-07T23:18:06.535Z,99.99
2023-02-07T23:21:14.235Z,99.99
2023-02-07T23:24:22.787Z,99.99
2023-02-07T23:27:31.204Z,99.99
2023-02-07T23:30:39.223Z,99.99
2023-02-07T23:33:47.891Z,99.99
2023-02-07T23:36:56.204Z,99.99
2023-02-07T23:40:04.050Z,99.99
2023-02-07T23:43:12.664Z,99.99
2023-02-07T23:46:21.386Z,99.99
2023-02-07T23:49:29.236Z,99.99
2023-02-07T23:52:37.751Z,99.99
2023-02-07T23:55:45.625Z,99.99
2023-02-07T23:58:53.672Z,99.99
